sensor_id;sensor_type;location;lat;lon;timestamp;P1;durP1;ratioP1;P2;durP2;ratioP2
78453;SDS011;67750;55.832;49.124;2023-05-21T00:00:10;8.58;;;4.25;;
78453;SDS011;67750;55.832;49.124;2023-05-21T00:02:39;7.08;;;4.20;;
78453;SDS011;67750;55.832;49.124;2023-05-21T00:05:08;6.50;;;4.22;;
78453;SDS011;67750;55.832;49.124;2023-05-21T00:07:40;7.22;;;4.20;;
78453;SDS011;67750;55.832;49.124;2023-05-21T00:10:09;10.72;;;4.42;;
78453;SDS011;67750;55.832;49.124;2023-05-21T00:12:39;9.20;;;4.28;;
78453;SDS011;67750;55.832;49.124;2023-05-21T00:15:09;6.28;;;4.08;;
78453;SDS011;67750;55.832;49.124;2023-05-21T00:17:39;6.55;;;3.80;;
78453;SDS011;67750;55.832;49.124;2023-05-21T00:20:09;6.03;;;3.70;;
78453;SDS011;67750;55.832;49.124;2023-05-21T00:22:39;8.23;;;4.00;;
78453;SDS011;67750;55.832;49.124;2023-05-21T00:25:10;9.35;;;4.40;;
78453;SDS011;67750;55.832;49.124;2023-05-21T00:27:39;7.00;;;3.83;;
78453;SDS011;67750;55.832;49.124;2023-05-21T00:30:09;7.22;;;3.52;;
78453;SDS011;67750;55.832;49.124;2023-05-21T00:32:39;7.25;;;4.42;;
78453;SDS011;67750;55.832;49.124;2023-05-21T00:35:08;6.58;;;3.92;;
78453;SDS011;67750;55.832;49.124;2023-05-21T00:37:38;6.60;;;4.35;;
78453;SDS011;67750;55.832;49.124;2023-05-21T00:40:08;8.85;;;4.45;;
78453;SDS011;67750;55.832;49.124;2023-05-21T00:42:39;11.05;;;4.72;;
78453;SDS011;67750;55.832;49.124;2023-05-21T00:45:10;9.03;;;4.37;;
78453;SDS011;67750;55.832;49.124;2023-05-21T00:47:41;8.00;;;4.33;;
78453;SDS011;67750;55.832;49.124;2023-05-21T00:50:11;9.05;;;4.37;;
78453;SDS011;67750;55.832;49.124;2023-05-21T00:52:41;8.30;;;4.10;;
78453;SDS011;67750;55.832;49.124;2023-05-21T00:55:11;7.90;;;3.80;;
78453;SDS011;67750;55.832;49.124;2023-05-21T00:57:41;7.10;;;4.03;;
78453;SDS011;67750;55.832;49.124;2023-05-21T01:02:40;6.42;;;3.58;;
78453;SDS011;67750;55.832;49.124;2023-05-21T01:05:10;7.55;;;4.15;;
78453;SDS011;67750;55.832;49.124;2023-05-21T01:07:41;10.35;;;4.20;;
78453;SDS011;67750;55.832;49.124;2023-05-21T01:10:11;6.17;;;3.65;;
78453;SDS011;67750;55.832;49.124;2023-05-21T01:12:41;7.70;;;4.00;;
78453;SDS011;67750;55.832;49.124;2023-05-21T01:15:11;5.78;;;3.52;;
78453;SDS011;67750;55.832;49.124;2023-05-21T01:17:41;4.95;;;3.22;;
78453;SDS011;67750;55.832;49.124;2023-05-21T01:20:31;7.47;;;3.60;;
78453;SDS011;67750;55.832;49.124;2023-05-21T01:23:00;4.40;;;2.75;;
78453;SDS011;67750;55.832;49.124;2023-05-21T01:25:30;5.75;;;2.83;;
78453;SDS011;67750;55.832;49.124;2023-05-21T01:28:00;7.00;;;3.20;;
78453;SDS011;67750;55.832;49.124;2023-05-21T01:30:30;7.83;;;3.50;;
78453;SDS011;67750;55.832;49.124;2023-05-21T01:35:50;6.45;;;3.05;;
78453;SDS011;67750;55.832;49.124;2023-05-21T01:43:40;8.00;;;3.55;;
78453;SDS011;67750;55.832;49.124;2023-05-21T01:48:38;7.65;;;4.05;;
78453;SDS011;67750;55.832;49.124;2023-05-21T01:51:08;7.22;;;4.47;;
78453;SDS011;67750;55.832;49.124;2023-05-21T01:53:38;7.10;;;3.47;;
78453;SDS011;67750;55.832;49.124;2023-05-21T01:56:08;8.65;;;3.60;;
78453;SDS011;67750;55.832;49.124;2023-05-21T01:58:38;8.35;;;3.90;;
78453;SDS011;67750;55.832;49.124;2023-05-21T02:01:09;8.50;;;3.80;;
78453;SDS011;67750;55.832;49.124;2023-05-21T02:03:39;7.42;;;4.05;;
78453;SDS011;67750;55.832;49.124;2023-05-21T02:06:08;6.30;;;3.87;;
78453;SDS011;67750;55.832;49.124;2023-05-21T02:08:38;6.33;;;4.15;;
78453;SDS011;67750;55.832;49.124;2023-05-21T02:11:09;8.08;;;4.15;;
78453;SDS011;67750;55.832;49.124;2023-05-21T02:13:39;6.65;;;3.72;;
78453;SDS011;67750;55.832;49.124;2023-05-21T02:16:08;9.20;;;3.80;;
78453;SDS011;67750;55.832;49.124;2023-05-21T02:19:11;8.70;;;4.12;;
78453;SDS011;67750;55.832;49.124;2023-05-21T02:21:12;7.62;;;3.37;;
78453;SDS011;67750;55.832;49.124;2023-05-21T02:23:42;7.50;;;3.70;;
78453;SDS011;67750;55.832;49.124;2023-05-21T02:26:11;6.92;;;3.72;;
78453;SDS011;67750;55.832;49.124;2023-05-21T02:28:41;6.42;;;3.90;;
78453;SDS011;67750;55.832;49.124;2023-05-21T02:31:11;6.17;;;3.83;;
78453;SDS011;67750;55.832;49.124;2023-05-21T02:33:41;8.05;;;4.00;;
78453;SDS011;67750;55.832;49.124;2023-05-21T02:36:10;9.60;;;4.10;;
78453;SDS011;67750;55.832;49.124;2023-05-21T02:38:41;7.55;;;3.87;;
78453;SDS011;67750;55.832;49.124;2023-05-21T02:41:11;5.40;;;3.42;;
78453;SDS011;67750;55.832;49.124;2023-05-21T02:43:40;5.30;;;3.05;;
78453;SDS011;67750;55.832;49.124;2023-05-21T02:46:10;9.38;;;3.37;;
78453;SDS011;67750;55.832;49.124;2023-05-21T02:48:40;7.95;;;3.52;;
78453;SDS011;67750;55.832;49.124;2023-05-21T02:51:09;5.10;;;3.15;;
78453;SDS011;67750;55.832;49.124;2023-05-21T02:53:39;6.35;;;3.15;;
78453;SDS011;67750;55.832;49.124;2023-05-21T02:56:08;6.40;;;3.42;;
78453;SDS011;67750;55.832;49.124;2023-05-21T02:58:38;7.53;;;3.40;;
78453;SDS011;67750;55.832;49.124;2023-05-21T03:01:08;5.87;;;2.60;;
78453;SDS011;67750;55.832;49.124;2023-05-21T03:03:37;10.13;;;3.20;;
78453;SDS011;67750;55.832;49.124;2023-05-21T03:06:07;3.52;;;2.35;;
78453;SDS011;67750;55.832;49.124;2023-05-21T03:08:36;7.15;;;3.00;;
78453;SDS011;67750;55.832;49.124;2023-05-21T03:11:06;5.85;;;3.10;;
78453;SDS011;67750;55.832;49.124;2023-05-21T03:13:36;5.78;;;3.30;;
78453;SDS011;67750;55.832;49.124;2023-05-21T03:18:55;4.90;;;2.27;;
78453;SDS011;67750;55.832;49.124;2023-05-21T03:21:25;3.92;;;2.08;;
78453;SDS011;67750;55.832;49.124;2023-05-21T03:23:56;4.33;;;2.50;;
78453;SDS011;67750;55.832;49.124;2023-05-21T03:26:25;3.85;;;2.27;;
78453;SDS011;67750;55.832;49.124;2023-05-21T03:28:56;4.70;;;2.15;;
78453;SDS011;67750;55.832;49.124;2023-05-21T03:31:26;4.37;;;2.12;;
78453;SDS011;67750;55.832;49.124;2023-05-21T03:34:15;3.70;;;2.33;;
78453;SDS011;67750;55.832;49.124;2023-05-21T03:36:46;3.70;;;2.35;;
78453;SDS011;67750;55.832;49.124;2023-05-21T03:39:17;5.22;;;2.10;;
78453;SDS011;67750;55.832;49.124;2023-05-21T03:41:46;4.50;;;2.52;;
78453;SDS011;67750;55.832;49.124;2023-05-21T03:44:18;5.15;;;2.05;;
78453;SDS011;67750;55.832;49.124;2023-05-21T03:46:49;5.75;;;2.20;;
78453;SDS011;67750;55.832;49.124;2023-05-21T03:49:20;5.20;;;2.58;;
78453;SDS011;67750;55.832;49.124;2023-05-21T03:51:51;3.67;;;2.40;;
78453;SDS011;67750;55.832;49.124;2023-05-21T03:54:20;8.73;;;3.20;;
78453;SDS011;67750;55.832;49.124;2023-05-21T03:56:52;5.20;;;2.95;;
78453;SDS011;67750;55.832;49.124;2023-05-21T03:59:22;10.03;;;3.42;;
78453;SDS011;67750;55.832;49.124;2023-05-21T04:01:52;6.75;;;3.20;;
78453;SDS011;67750;55.832;49.124;2023-05-21T04:04:21;6.83;;;3.50;;
78453;SDS011;67750;55.832;49.124;2023-05-21T04:06:51;6.15;;;3.02;;
78453;SDS011;67750;55.832;49.124;2023-05-21T04:09:21;4.95;;;3.12;;
78453;SDS011;67750;55.832;49.124;2023-05-21T04:11:51;5.92;;;3.10;;
78453;SDS011;67750;55.832;49.124;2023-05-21T04:14:21;4.08;;;3.25;;
78453;SDS011;67750;55.832;49.124;2023-05-21T04:16:51;5.17;;;3.27;;
78453;SDS011;67750;55.832;49.124;2023-05-21T04:19:21;6.85;;;2.80;;
78453;SDS011;67750;55.832;49.124;2023-05-21T04:21:50;5.10;;;2.70;;
78453;SDS011;67750;55.832;49.124;2023-05-21T04:24:20;5.97;;;2.70;;
78453;SDS011;67750;55.832;49.124;2023-05-21T04:27:10;6.87;;;2.80;;
78453;SDS011;67750;55.832;49.124;2023-05-21T04:29:40;6.72;;;3.00;;
78453;SDS011;67750;55.832;49.124;2023-05-21T04:32:10;6.53;;;2.80;;
78453;SDS011;67750;55.832;49.124;2023-05-21T04:34:41;5.62;;;2.67;;
78453;SDS011;67750;55.832;49.124;2023-05-21T04:37:10;6.35;;;2.67;;
78453;SDS011;67750;55.832;49.124;2023-05-21T04:39:40;6.05;;;3.12;;
78453;SDS011;67750;55.832;49.124;2023-05-21T04:42:10;3.92;;;2.80;;
78453;SDS011;67750;55.832;49.124;2023-05-21T04:44:40;4.83;;;2.75;;
78453;SDS011;67750;55.832;49.124;2023-05-21T04:47:10;4.62;;;2.45;;
78453;SDS011;67750;55.832;49.124;2023-05-21T04:49:40;4.33;;;2.55;;
78453;SDS011;67750;55.832;49.124;2023-05-21T04:52:10;4.53;;;2.33;;
78453;SDS011;67750;55.832;49.124;2023-05-21T04:54:40;3.92;;;2.65;;
78453;SDS011;67750;55.832;49.124;2023-05-21T04:57:11;6.60;;;2.90;;
78453;SDS011;67750;55.832;49.124;2023-05-21T04:59:40;8.58;;;2.55;;
78453;SDS011;67750;55.832;49.124;2023-05-21T05:02:10;5.92;;;2.35;;
78453;SDS011;67750;55.832;49.124;2023-05-21T05:04:41;4.22;;;2.08;;
78453;SDS011;67750;55.832;49.124;2023-05-21T05:07:11;3.77;;;2.33;;
78453;SDS011;67750;55.832;49.124;2023-05-21T05:09:42;5.47;;;2.37;;
78453;SDS011;67750;55.832;49.124;2023-05-21T05:12:11;5.15;;;2.50;;
78453;SDS011;67750;55.832;49.124;2023-05-21T05:14:41;4.45;;;2.12;;
78453;SDS011;67750;55.832;49.124;2023-05-21T05:17:11;8.98;;;2.05;;
78453;SDS011;67750;55.832;49.124;2023-05-21T05:20:00;3.20;;;2.00;;
78453;SDS011;67750;55.832;49.124;2023-05-21T05:22:31;4.67;;;2.25;;
78453;SDS011;67750;55.832;49.124;2023-05-21T05:25:01;5.37;;;2.30;;
78453;SDS011;67750;55.832;49.124;2023-05-21T05:27:32;8.58;;;2.20;;
78453;SDS011;67750;55.832;49.124;2023-05-21T05:30:02;3.62;;;2.30;;
78453;SDS011;67750;55.832;49.124;2023-05-21T05:32:33;4.33;;;2.50;;
78453;SDS011;67750;55.832;49.124;2023-05-21T05:35:02;4.22;;;2.25;;
78453;SDS011;67750;55.832;49.124;2023-05-21T05:37:33;3.45;;;2.20;;
78453;SDS011;67750;55.832;49.124;2023-05-21T05:40:05;3.42;;;1.70;;
78453;SDS011;67750;55.832;49.124;2023-05-21T05:42:35;4.40;;;1.42;;
78453;SDS011;67750;55.832;49.124;2023-05-21T05:45:06;4.62;;;1.82;;
78453;SDS011;67750;55.832;49.124;2023-05-21T05:47:36;3.33;;;1.52;;
78453;SDS011;67750;55.832;49.124;2023-05-21T05:50:06;12.40;;;2.45;;
78453;SDS011;67750;55.832;49.124;2023-05-21T05:52:36;6.47;;;1.92;;
78453;SDS011;67750;55.832;49.124;2023-05-21T05:55:06;3.90;;;1.95;;
78453;SDS011;67750;55.832;49.124;2023-05-21T06:00:07;5.30;;;1.47;;
78453;SDS011;67750;55.832;49.124;2023-05-21T06:02:38;3.37;;;1.77;;
78453;SDS011;67750;55.832;49.124;2023-05-21T06:05:09;3.35;;;1.95;;
78453;SDS011;67750;55.832;49.124;2023-05-21T06:07:38;4.45;;;2.12;;
78453;SDS011;67750;55.832;49.124;2023-05-21T06:10:09;3.33;;;2.08;;
78453;SDS011;67750;55.832;49.124;2023-05-21T06:12:38;3.27;;;2.00;;
78453;SDS011;67750;55.832;49.124;2023-05-21T06:15:08;4.28;;;1.98;;
78453;SDS011;67750;55.832;49.124;2023-05-21T06:17:38;4.12;;;2.10;;
78453;SDS011;67750;55.832;49.124;2023-05-21T06:20:08;7.08;;;1.87;;
78453;SDS011;67750;55.832;49.124;2023-05-21T06:22:38;6.08;;;1.98;;
78453;SDS011;67750;55.832;49.124;2023-05-21T06:25:08;4.60;;;1.90;;
78453;SDS011;67750;55.832;49.124;2023-05-21T06:27:38;3.62;;;2.08;;
78453;SDS011;67750;55.832;49.124;2023-05-21T06:30:09;4.17;;;1.92;;
78453;SDS011;67750;55.832;49.124;2023-05-21T06:32:39;4.45;;;2.10;;
78453;SDS011;67750;55.832;49.124;2023-05-21T06:35:08;6.78;;;2.30;;
78453;SDS011;67750;55.832;49.124;2023-05-21T06:37:38;4.65;;;2.15;;
78453;SDS011;67750;55.832;49.124;2023-05-21T06:40:09;4.92;;;2.50;;
78453;SDS011;67750;55.832;49.124;2023-05-21T06:42:39;4.97;;;1.80;;
78453;SDS011;67750;55.832;49.124;2023-05-21T06:45:28;7.90;;;2.20;;
78453;SDS011;67750;55.832;49.124;2023-05-21T06:47:59;6.50;;;2.08;;
78453;SDS011;67750;55.832;49.124;2023-05-21T06:50:29;5.40;;;1.90;;
78453;SDS011;67750;55.832;49.124;2023-05-21T06:52:59;5.40;;;2.30;;
78453;SDS011;67750;55.832;49.124;2023-05-21T06:55:29;5.65;;;2.30;;
78453;SDS011;67750;55.832;49.124;2023-05-21T06:58:18;4.60;;;2.08;;
78453;SDS011;67750;55.832;49.124;2023-05-21T07:00:48;5.75;;;2.20;;
78453;SDS011;67750;55.832;49.124;2023-05-21T07:03:17;5.10;;;2.10;;
78453;SDS011;67750;55.832;49.124;2023-05-21T07:05:47;7.05;;;2.12;;
78453;SDS011;67750;55.832;49.124;2023-05-21T07:08:16;6.20;;;2.10;;
78453;SDS011;67750;55.832;49.124;2023-05-21T07:10:46;4.58;;;2.10;;
78453;SDS011;67750;55.832;49.124;2023-05-21T07:13:16;5.28;;;2.02;;
78453;SDS011;67750;55.832;49.124;2023-05-21T07:15:46;3.37;;;1.90;;
78453;SDS011;67750;55.832;49.124;2023-05-21T07:18:17;6.12;;;2.30;;
78453;SDS011;67750;55.832;49.124;2023-05-21T07:20:47;13.32;;;2.77;;
78453;SDS011;67750;55.832;49.124;2023-05-21T07:23:16;6.33;;;2.25;;
78453;SDS011;67750;55.832;49.124;2023-05-21T07:25:47;4.83;;;2.05;;
78453;SDS011;67750;55.832;49.124;2023-05-21T07:28:17;5.30;;;1.82;;
78453;SDS011;67750;55.832;49.124;2023-05-21T07:30:47;6.75;;;1.80;;
78453;SDS011;67750;55.832;49.124;2023-05-21T07:33:18;7.75;;;1.90;;
78453;SDS011;67750;55.832;49.124;2023-05-21T07:35:49;4.17;;;1.70;;
78453;SDS011;67750;55.832;49.124;2023-05-21T07:38:18;4.53;;;1.67;;
78453;SDS011;67750;55.832;49.124;2023-05-21T07:40:48;4.75;;;1.80;;
78453;SDS011;67750;55.832;49.124;2023-05-21T07:43:18;5.60;;;1.82;;
78453;SDS011;67750;55.832;49.124;2023-05-21T07:45:47;10.60;;;1.92;;
78453;SDS011;67750;55.832;49.124;2023-05-21T07:48:17;5.37;;;2.02;;
78453;SDS011;67750;55.832;49.124;2023-05-21T07:50:48;8.03;;;1.80;;
78453;SDS011;67750;55.832;49.124;2023-05-21T07:53:18;4.78;;;1.72;;
78453;SDS011;67750;55.832;49.124;2023-05-21T07:55:48;5.45;;;1.87;;
78453;SDS011;67750;55.832;49.124;2023-05-21T07:58:20;4.87;;;1.62;;
78453;SDS011;67750;55.832;49.124;2023-05-21T08:00:49;7.60;;;2.30;;
78453;SDS011;67750;55.832;49.124;2023-05-21T08:03:19;4.83;;;1.82;;
78453;SDS011;67750;55.832;49.124;2023-05-21T08:05:49;6.33;;;2.10;;
78453;SDS011;67750;55.832;49.124;2023-05-21T08:08:19;4.80;;;1.50;;
78453;SDS011;67750;55.832;49.124;2023-05-21T08:10:50;5.00;;;1.80;;
78453;SDS011;67750;55.832;49.124;2023-05-21T08:13:20;5.53;;;1.72;;
78453;SDS011;67750;55.832;49.124;2023-05-21T08:15:50;5.25;;;1.80;;
78453;SDS011;67750;55.832;49.124;2023-05-21T08:18:20;6.35;;;1.75;;
78453;SDS011;67750;55.832;49.124;2023-05-21T08:20:52;5.05;;;1.90;;
78453;SDS011;67750;55.832;49.124;2023-05-21T08:23:23;4.67;;;1.87;;
78453;SDS011;67750;55.832;49.124;2023-05-21T08:25:54;6.00;;;2.35;;
78453;SDS011;67750;55.832;49.124;2023-05-21T08:28:24;7.40;;;2.00;;
78453;SDS011;67750;55.832;49.124;2023-05-21T08:30:55;7.78;;;2.22;;
78453;SDS011;67750;55.832;49.124;2023-05-21T08:33:25;5.55;;;2.25;;
78453;SDS011;67750;55.832;49.124;2023-05-21T08:35:55;5.78;;;2.02;;
78453;SDS011;67750;55.832;49.124;2023-05-21T08:41:16;5.45;;;2.33;;
78453;SDS011;67750;55.832;49.124;2023-05-21T08:43:48;4.53;;;2.02;;
78453;SDS011;67750;55.832;49.124;2023-05-21T08:46:19;5.40;;;2.12;;
78453;SDS011;67750;55.832;49.124;2023-05-21T08:48:52;6.58;;;1.80;;
78453;SDS011;67750;55.832;49.124;2023-05-21T08:51:22;5.12;;;1.70;;
78453;SDS011;67750;55.832;49.124;2023-05-21T08:53:52;6.40;;;1.80;;
78453;SDS011;67750;55.832;49.124;2023-05-21T08:56:23;6.35;;;2.30;;
78453;SDS011;67750;55.832;49.124;2023-05-21T08:58:55;5.53;;;1.90;;
78453;SDS011;67750;55.832;49.124;2023-05-21T09:01:27;4.28;;;1.80;;
78453;SDS011;67750;55.832;49.124;2023-05-21T09:03:59;6.15;;;2.00;;
78453;SDS011;67750;55.832;49.124;2023-05-21T09:06:29;7.50;;;2.20;;
78453;SDS011;67750;55.832;49.124;2023-05-21T09:09:01;6.80;;;2.08;;
78453;SDS011;67750;55.832;49.124;2023-05-21T09:11:51;3.75;;;1.77;;
78453;SDS011;67750;55.832;49.124;2023-05-21T09:14:20;5.50;;;1.70;;
78453;SDS011;67750;55.832;49.124;2023-05-21T09:16:53;6.12;;;1.85;;
78453;SDS011;67750;55.832;49.124;2023-05-21T09:19:23;6.30;;;2.27;;
78453;SDS011;67750;55.832;49.124;2023-05-21T09:21:52;5.95;;;2.05;;
78453;SDS011;67750;55.832;49.124;2023-05-21T09:24:23;6.20;;;2.30;;
78453;SDS011;67750;55.832;49.124;2023-05-21T09:26:53;6.03;;;2.25;;
78453;SDS011;67750;55.832;49.124;2023-05-21T09:29:23;3.58;;;2.12;;
78453;SDS011;67750;55.832;49.124;2023-05-21T09:31:53;5.20;;;1.98;;
78453;SDS011;67750;55.832;49.124;2023-05-21T09:34:23;9.50;;;2.10;;
78453;SDS011;67750;55.832;49.124;2023-05-21T09:37:26;5.37;;;1.80;;
78453;SDS011;67750;55.832;49.124;2023-05-21T09:39:27;6.60;;;2.08;;
78453;SDS011;67750;55.832;49.124;2023-05-21T09:41:58;6.75;;;2.20;;
78453;SDS011;67750;55.832;49.124;2023-05-21T09:44:28;3.55;;;1.60;;
78453;SDS011;67750;55.832;49.124;2023-05-21T09:46:58;8.10;;;2.50;;
78453;SDS011;67750;55.832;49.124;2023-05-21T09:49:28;5.12;;;2.22;;
78453;SDS011;67750;55.832;49.124;2023-05-21T09:57:22;5.65;;;2.15;;
78453;SDS011;67750;55.832;49.124;2023-05-21T09:59:48;3.52;;;2.05;;
78453;SDS011;67750;55.832;49.124;2023-05-21T10:02:19;6.30;;;2.02;;
78453;SDS011;67750;55.832;49.124;2023-05-21T10:04:49;5.80;;;2.20;;
78453;SDS011;67750;55.832;49.124;2023-05-21T10:07:21;6.90;;;2.30;;
78453;SDS011;67750;55.832;49.124;2023-05-21T10:10:11;4.37;;;2.20;;
78453;SDS011;67750;55.832;49.124;2023-05-21T10:13:14;4.20;;;2.00;;
78453;SDS011;67750;55.832;49.124;2023-05-21T10:15:13;6.65;;;2.30;;
78453;SDS011;67750;55.832;49.124;2023-05-21T10:17:45;5.45;;;2.08;;
78453;SDS011;67750;55.832;49.124;2023-05-21T10:20:15;4.22;;;2.10;;
78453;SDS011;67750;55.832;49.124;2023-05-21T10:22:45;9.43;;;1.98;;
78453;SDS011;67750;55.832;49.124;2023-05-21T10:25:14;9.93;;;1.98;;
78453;SDS011;67750;55.832;49.124;2023-05-21T10:27:44;7.20;;;2.30;;
78453;SDS011;67750;55.832;49.124;2023-05-21T10:30:14;4.92;;;1.90;;
78453;SDS011;67750;55.832;49.124;2023-05-21T10:32:44;5.70;;;1.92;;
78453;SDS011;67750;55.832;49.124;2023-05-21T10:35:15;8.73;;;2.50;;
78453;SDS011;67750;55.832;49.124;2023-05-21T10:37:45;6.97;;;2.42;;
78453;SDS011;67750;55.832;49.124;2023-05-21T10:40:15;8.98;;;1.85;;
78453;SDS011;67750;55.832;49.124;2023-05-21T10:54:07;8.70;;;2.02;;
78453;SDS011;67750;55.832;49.124;2023-05-21T11:02:14;5.00;;;1.92;;
78453;SDS011;67750;55.832;49.124;2023-05-21T11:07:17;5.70;;;2.00;;
78453;SDS011;67750;55.832;49.124;2023-05-21T11:09:45;6.58;;;2.37;;
78453;SDS011;67750;55.832;49.124;2023-05-21T11:12:16;6.03;;;2.00;;
78453;SDS011;67750;55.832;49.124;2023-05-21T11:20:32;4.62;;;2.10;;
78453;SDS011;67750;55.832;49.124;2023-05-21T11:22:58;6.67;;;2.15;;
78453;SDS011;67750;55.832;49.124;2023-05-21T11:25:27;6.67;;;2.00;;
78453;SDS011;67750;55.832;49.124;2023-05-21T11:28:02;6.47;;;2.20;;
78453;SDS011;67750;55.832;49.124;2023-05-21T11:30:29;6.15;;;1.90;;
78453;SDS011;67750;55.832;49.124;2023-05-21T11:38:37;12.85;;;2.40;;
78453;SDS011;67750;55.832;49.124;2023-05-21T11:41:07;5.95;;;2.20;;
78453;SDS011;67750;55.832;49.124;2023-05-21T11:46:27;4.90;;;2.05;;
78453;SDS011;67750;55.832;49.124;2023-05-21T11:48:56;11.53;;;2.12;;
78453;SDS011;67750;55.832;49.124;2023-05-21T11:51:27;9.00;;;2.58;;
78453;SDS011;67750;55.832;49.124;2023-05-21T11:53:57;7.95;;;2.22;;
78453;SDS011;67750;55.832;49.124;2023-05-21T11:56:27;4.10;;;1.95;;
78453;SDS011;67750;55.832;49.124;2023-05-21T11:59:00;6.10;;;1.90;;
78453;SDS011;67750;55.832;49.124;2023-05-21T12:01:29;8.18;;;1.92;;
78453;SDS011;67750;55.832;49.124;2023-05-21T12:04:02;7.15;;;2.33;;
78453;SDS011;67750;55.832;49.124;2023-05-21T12:06:30;6.90;;;2.25;;
78453;SDS011;67750;55.832;49.124;2023-05-21T12:09:00;4.85;;;2.55;;
78453;SDS011;67750;55.832;49.124;2023-05-21T12:11:30;9.93;;;2.80;;
78453;SDS011;67750;55.832;49.124;2023-05-21T12:14:00;6.50;;;2.15;;
78453;SDS011;67750;55.832;49.124;2023-05-21T12:16:29;6.22;;;2.12;;
78453;SDS011;67750;55.832;49.124;2023-05-21T12:19:00;7.97;;;2.12;;
78453;SDS011;67750;55.832;49.124;2023-05-21T12:23:58;4.35;;;1.90;;
78453;SDS011;67750;55.832;49.124;2023-05-21T12:26:28;4.50;;;1.95;;
78453;SDS011;67750;55.832;49.124;2023-05-21T12:28:59;8.93;;;2.35;;
78453;SDS011;67750;55.832;49.124;2023-05-21T12:31:28;4.33;;;2.00;;
78453;SDS011;67750;55.832;49.124;2023-05-21T12:33:58;4.85;;;2.20;;
78453;SDS011;67750;55.832;49.124;2023-05-21T12:36:28;7.80;;;1.98;;
78453;SDS011;67750;55.832;49.124;2023-05-21T12:39:00;5.37;;;2.10;;
78453;SDS011;67750;55.832;49.124;2023-05-21T12:41:29;5.83;;;2.12;;
78453;SDS011;67750;55.832;49.124;2023-05-21T12:43:59;5.17;;;1.98;;
78453;SDS011;67750;55.832;49.124;2023-05-21T12:46:29;8.28;;;2.20;;
78453;SDS011;67750;55.832;49.124;2023-05-21T12:48:58;8.30;;;2.15;;
78453;SDS011;67750;55.832;49.124;2023-05-21T12:52:00;6.97;;;1.55;;
78453;SDS011;67750;55.832;49.124;2023-05-21T12:53:59;5.60;;;1.92;;
78453;SDS011;67750;55.832;49.124;2023-05-21T12:56:28;13.80;;;2.70;;
78453;SDS011;67750;55.832;49.124;2023-05-21T12:58:59;5.37;;;1.92;;
78453;SDS011;67750;55.832;49.124;2023-05-21T13:01:29;6.80;;;2.20;;
78453;SDS011;67750;55.832;49.124;2023-05-21T13:03:58;9.95;;;1.80;;
78453;SDS011;67750;55.832;49.124;2023-05-21T13:08:58;5.22;;;1.82;;
78453;SDS011;67750;55.832;49.124;2023-05-21T13:13:56;5.05;;;1.90;;
78453;SDS011;67750;55.832;49.124;2023-05-21T13:16:26;4.35;;;2.22;;
78453;SDS011;67750;55.832;49.124;2023-05-21T13:18:56;6.67;;;2.00;;
78453;SDS011;67750;55.832;49.124;2023-05-21T13:21:25;7.85;;;1.80;;
78453;SDS011;67750;55.832;49.124;2023-05-21T13:23:55;5.03;;;1.60;;
78453;SDS011;67750;55.832;49.124;2023-05-21T13:26:24;5.90;;;2.02;;
78453;SDS011;67750;55.832;49.124;2023-05-21T13:28:54;5.95;;;2.08;;
78453;SDS011;67750;55.832;49.124;2023-05-21T13:31:23;6.92;;;2.27;;
78453;SDS011;67750;55.832;49.124;2023-05-21T13:33:53;6.83;;;2.25;;
78453;SDS011;67750;55.832;49.124;2023-05-21T13:36:22;6.12;;;1.95;;
78453;SDS011;67750;55.832;49.124;2023-05-21T13:38:52;11.00;;;2.65;;
78453;SDS011;67750;55.832;49.124;2023-05-21T13:41:22;5.12;;;2.67;;
78453;SDS011;67750;55.832;49.124;2023-05-21T13:43:52;4.87;;;2.58;;
78453;SDS011;67750;55.832;49.124;2023-05-21T13:46:21;6.17;;;2.60;;
78453;SDS011;67750;55.832;49.124;2023-05-21T13:48:51;7.47;;;1.92;;
78453;SDS011;67750;55.832;49.124;2023-05-21T13:51:20;5.45;;;2.20;;
78453;SDS011;67750;55.832;49.124;2023-05-21T13:53:50;4.58;;;1.87;;
78453;SDS011;67750;55.832;49.124;2023-05-21T13:56:19;3.20;;;1.70;;
78453;SDS011;67750;55.832;49.124;2023-05-21T13:58:49;6.50;;;2.40;;
78453;SDS011;67750;55.832;49.124;2023-05-21T14:01:18;5.15;;;2.20;;
78453;SDS011;67750;55.832;49.124;2023-05-21T14:03:48;14.30;;;3.22;;
78453;SDS011;67750;55.832;49.124;2023-05-21T14:06:18;6.35;;;3.20;;
78453;SDS011;67750;55.832;49.124;2023-05-21T14:08:47;7.42;;;2.62;;
78453;SDS011;67750;55.832;49.124;2023-05-21T14:11:17;6.37;;;2.67;;
78453;SDS011;67750;55.832;49.124;2023-05-21T14:13:47;8.88;;;2.70;;
78453;SDS011;67750;55.832;49.124;2023-05-21T14:16:17;7.75;;;3.17;;
78453;SDS011;67750;55.832;49.124;2023-05-21T14:18:48;7.45;;;2.22;;
78453;SDS011;67750;55.832;49.124;2023-05-21T14:21:17;5.10;;;2.95;;
78453;SDS011;67750;55.832;49.124;2023-05-21T14:23:47;7.40;;;2.25;;
78453;SDS011;67750;55.832;49.124;2023-05-21T14:26:17;8.85;;;2.52;;
78453;SDS011;67750;55.832;49.124;2023-05-21T14:28:47;6.75;;;2.20;;
78453;SDS011;67750;55.832;49.124;2023-05-21T14:31:19;7.35;;;2.52;;
78453;SDS011;67750;55.832;49.124;2023-05-21T14:33:50;8.33;;;2.37;;
78453;SDS011;67750;55.832;49.124;2023-05-21T14:36:19;3.90;;;2.33;;
78453;SDS011;67750;55.832;49.124;2023-05-21T14:38:49;8.33;;;2.33;;
78453;SDS011;67750;55.832;49.124;2023-05-21T14:41:18;7.97;;;2.20;;
78453;SDS011;67750;55.832;49.124;2023-05-21T14:43:48;4.55;;;1.95;;
78453;SDS011;67750;55.832;49.124;2023-05-21T14:46:18;9.58;;;2.60;;
78453;SDS011;67750;55.832;49.124;2023-05-21T14:48:47;7.30;;;2.40;;
78453;SDS011;67750;55.832;49.124;2023-05-21T14:51:17;9.18;;;2.42;;
78453;SDS011;67750;55.832;49.124;2023-05-21T14:53:47;5.70;;;2.10;;
78453;SDS011;67750;55.832;49.124;2023-05-21T14:56:16;5.50;;;2.67;;
78453;SDS011;67750;55.832;49.124;2023-05-21T14:58:47;7.55;;;2.30;;
78453;SDS011;67750;55.832;49.124;2023-05-21T15:01:17;6.58;;;2.22;;
78453;SDS011;67750;55.832;49.124;2023-05-21T15:03:46;6.60;;;2.20;;
78453;SDS011;67750;55.832;49.124;2023-05-21T15:06:16;4.33;;;2.00;;
78453;SDS011;67750;55.832;49.124;2023-05-21T15:08:46;5.85;;;2.62;;
78453;SDS011;67750;55.832;49.124;2023-05-21T15:11:15;6.08;;;2.00;;
78453;SDS011;67750;55.832;49.124;2023-05-21T15:13:44;3.67;;;1.90;;
78453;SDS011;67750;55.832;49.124;2023-05-21T15:16:14;6.10;;;2.05;;
78453;SDS011;67750;55.832;49.124;2023-05-21T15:18:43;7.10;;;2.00;;
78453;SDS011;67750;55.832;49.124;2023-05-21T15:21:13;6.28;;;2.27;;
78453;SDS011;67750;55.832;49.124;2023-05-21T15:23:43;7.95;;;2.15;;
78453;SDS011;67750;55.832;49.124;2023-05-21T15:26:12;9.15;;;1.90;;
78453;SDS011;67750;55.832;49.124;2023-05-21T15:28:42;7.03;;;2.33;;
78453;SDS011;67750;55.832;49.124;2023-05-21T15:31:11;9.25;;;2.50;;
78453;SDS011;67750;55.832;49.124;2023-05-21T15:33:41;7.83;;;2.42;;
78453;SDS011;67750;55.832;49.124;2023-05-21T15:36:10;6.87;;;2.20;;
78453;SDS011;67750;55.832;49.124;2023-05-21T15:38:40;9.00;;;2.20;;
78453;SDS011;67750;55.832;49.124;2023-05-21T15:41:10;4.15;;;1.95;;
78453;SDS011;67750;55.832;49.124;2023-05-21T15:43:39;6.35;;;2.58;;
78453;SDS011;67750;55.832;49.124;2023-05-21T15:46:09;10.43;;;2.40;;
78453;SDS011;67750;55.832;49.124;2023-05-21T15:48:38;11.05;;;2.35;;
78453;SDS011;67750;55.832;49.124;2023-05-21T15:51:08;8.03;;;2.30;;
78453;SDS011;67750;55.832;49.124;2023-05-21T15:53:38;10.55;;;2.60;;
78453;SDS011;67750;55.832;49.124;2023-05-21T15:56:07;4.92;;;2.47;;
78453;SDS011;67750;55.832;49.124;2023-05-21T15:58:37;7.72;;;2.40;;